長崎空港の過去48時間の天気

長崎空港 (Nagasaki)

現在時刻: 8/18 22:38 JST (8/18 13:38 UTC) 以下の時間は現地時間です。

過去48時間のMETAR気象情報
時間 風向 風速(m/s) 視程 気温(℃) 湿度(%) 気圧(hPa) 天気現象
18 21:00 南西 4 10km以上 27 84 1009
18 20:00 南西 5 10km以上 27 84 1008
18 19:00 南西 5 10km以上 27 84 1008
18 18:00 南西 5 10km以上 28 79 1008
18 17:00 南西 6 10km以上 29 74 1008
18 16:00 西南西 7 10km以上 29 74 1008
18 15:00 南南西 8 10km以上 29 70 1008
18 14:00 南西 5 10km以上 30 62 1008
18 13:00 南南西 7 10km以上 29 66 1008
18 12:00 2 10km以上 28 79 1008
18 11:00 不定 1 10km以上 28 89 1008
18 10:00 南東 3 10km以上 26 89 1008
18 09:00 南東 2 10km以上 26 89 1008
18 08:00 南南西 3 10km以上 26 89 1008
18 07:00 3 10km以上 25 94 1008 弱いしゅう雨
18 06:37 南南西 7 5000m 25 94 1007 弱いしゅう雨 もや
18 06:10 不定 1 4000m 25 100 1007 しゅう雨 もや
17 21:00 南東 3 10km以上 27 94 1007 弱いしゅう雨
17 20:19 2 10km以上 26 94 1007 弱いしゅう雨
17 20:06 不定 1 6000m 26 94 1007 強いしゅう雨
17 20:00 東南東 2 10km以上 26 94 1007 弱いしゅう雨
17 19:44 東南東 3 9000m 26 94 1007 しゅう雨
17 19:00 東南東 2 10km以上 26 94 1007 周辺でしゅう雨
17 18:04 南東 4 10km以上 25 94 1008 弱いしゅう雨
17 18:00 南東 4 9000m 25 94 1008 しゅう雨
17 17:38 南東 3 8000m 26 89 1007 しゅう雨
17 17:00 4 10km以上 25 94 1008 弱い雨
17 16:12 南東 3 10km以上 25 94 1008 弱い雨
17 16:00 東南東 3 8000m 25 94 1008 雷雨
17 15:29 北北東 5 3000m 24 100 1009 雷雨 もや
17 15:10 北西 7 1500m 25 94 1010 強い雷雨 もや
17 15:00 6 3000m 25 94 1009 雷雨 もや
17 14:45 8 2000m 25 94 1009 強い雷雨 もや
17 14:18 北北西 8 4000m 25 94 1009 強い雷雨 もや
17 14:00 北北東 10 10km以上 26 94 1008 雷 周辺でしゅう雨
17 13:12 北北西 7 7000m 26 94 1008 弱い雷雨
17 13:08 北西 6 4000m 26 94 1008 強い雷雨 もや
17 13:00 北北西 7 10km以上 27 84 1008 弱いしゅう雨
17 12:00 南南西 8 10km以上 29 84 1008 弱いしゅう雨
17 11:00 南南西 9 10km以上 30 79 1008 周辺でしゅう雨
17 10:00 南南西 8 10km以上 29 84 1008 周辺でしゅう雨
17 09:00 4 10km以上 29 89 1009 周辺でしゅう雨
17 08:00 南南西 8 10km以上 29 84 1008 弱い雷雨
17 07:00 南西 10 10km以上 29 84 1008 弱いしゅう雨
17 06:49 南南西 8 10km以上 28 89 1008 しゅう雨
17 06:35 南西 8 10km以上 28 89 1008 弱い雷雨
17 06:29 南南西 11 7000m 28 84 1008 しゅう雨
17 06:12 南西 8 4000m 28 84 1008 強いしゅう雨 もや
17 06:10 南西 8 4000m 29 84 1008 しゅう雨 もや
RJFU 181200Z 22007KT 9999 FEW015 BKN/// 27/24 Q1009
RJFU 181100Z 22010KT 9999 FEW020 BKN/// 27/24 Q1008
RJFU 181000Z 23009KT 9999 FEW010 SCT060 BKN/// 27/24 Q1008
RJFU 180900Z 22009KT 9999 FEW010 SCT050 BKN/// 28/24 Q1008
RJFU 180800Z 22011KT 9999 FEW025 SCT/// 29/24 Q1008
RJFU 180700Z 24014KT 9999 FEW025 BKN/// 29/24 Q1008
RJFU 180600Z 21015KT 9999 FEW020 BKN/// 29/23 Q1008
RJFU 180500Z 22009KT 9999 FEW020 BKN/// 30/22 Q1008
RJFU 180400Z 21013KT 170V230 9999 FEW030 BKN/// 29/22 Q1008
RJFU 180300Z 19004KT 160V220 9999 FEW020 BKN/// 28/24 Q1008
RJFU 180200Z VRB02KT 9999 FEW010 SCT060 BKN/// 28/26 Q1008
RJFU 180100Z 14006KT 9999 FEW005 BKN060 BKN070 26/24 Q1008
RJFU 180000Z 13003KT 100V170 9999 FEW003 BKN050 BKN060 26/24 Q1008
RJFU 172300Z 20005KT 160V230 9999 FEW003 BKN040 BKN060 26/24 Q1008
RJFU 172200Z 18006KT 9999 -SHRA FEW002 BKN040 BKN050 25/24 Q1008
RJFU 172137Z 21013KT 5000 -SHRA BR FEW002 SCT020 BKN040 25/24 Q1007 RMK 1ST002 3CU020 7CU040 A2976
RJFU 172110Z VRB02KT 4000 SHRA BR FEW002 SCT020 BKN030 25/25 Q1007 RMK 1ST002 3CU020 5CU030 A2975
RJFU 171200Z 13006KT 9999 -SHRA FEW010 SCT015 BKN025 27/26 Q1007
RJFU 171119Z 09003KT 9999 -SHRA FEW005 SCT010 BKN015 26/25 Q1007 RMK 1ST005 3CU010 7CU015 A2976
RJFU 171106Z VRB02KT 6000 +SHRA FEW005 SCT010 BKN015 26/25 Q1007 RMK 1ST005 3CU010 7CU015 A2976
RJFU 171100Z 11004KT 9999 -SHRA FEW005 SCT010 BKN020 26/25 Q1007
RJFU 171044Z 11005KT 9000 SHRA FEW005 SCT015 BKN025 26/25 Q1007 RMK 1ST005 4CU015 6CU025 A2975
RJFU 171000Z 12003KT 9999 VCSH FEW005 SCT020 BKN150 26/25 Q1007
RJFU 170904Z 14007KT 9999 -SHRA FEW005 SCT010 BKN015 25/24 Q1008 RMK 1ST005 4CU010 6CU015 A2977
RJFU 170900Z 14007KT 9000 R32/2000N SHRA FEW005 BKN010 BKN015 25/24 Q1008
RJFU 170838Z 14005KT 120V180 8000 R32/1200VP2000D SHRA FEW005 BKN010 BKN020 26/24 Q1007 RMK 1ST005 5CU010 7CU020 A2976
RJFU 170800Z 19007KT 140V230 9999 -RA FEW005 SCT010 BKN070 25/24 Q1008
RJFU 170712Z 13005KT 9999 -RA FEW007 SCT015 BKN120 25/24 Q1008 RMK 1ST007 3CU015 7AC120 A2978 P/FR
RJFU 170700Z 11006KT 8000 TSRA FEW005 SCT010 BKN030 FEW030CB 25/24 Q1008
RJFU 170629Z 02009KT 3000 R32/1300VP2000U TSRA BR FEW005 BKN010 BKN015 FEW015CB 24/24 Q1009 RMK 1ST005 5CU010 6CU015 2CB015 A2982 FBL TS 10KM E MOV E
RJFU 170610Z 31014KT 1500 R32/P2000N +TSRA BR FEW005 BKN010 BKN015 SCT015CB 25/24 Q1010 RMK 1ST005 6CU010 7CU015 3CB015 A2982 FBL TS OHD MOV E RI++
RJFU 170600Z 01011KT 3000 TSRA BR FEW005 BKN010 BKN020 FEW020CB 25/24 Q1009
RJFU 170545Z 36016KT 2000 R32/1300VP2000D +TSRA BR FEW005 BKN010 BKN020 FEW020CB 25/24 Q1009 RMK 1ST005 5CU010 7CU020 2CB020 A2980 FBL TS 10KM NE MOV E RI++
RJFU 170518Z 34016KT 4000 +TSRA BR FEW003 SCT007 BKN010 FEW015CB 25/24 Q1009 RMK 1ST003 3ST007 6CU010 1CB015 A2981 FBL TS 15KM NE MOV E RI++
RJFU 170500Z 03019KT 9999 TS VCSH FEW005 SCT015 BKN020 FEW020CB 26/25 Q1008
RJFU 170412Z 34014KT 290V010 7000 R32/1600VP2000N -TSRA FEW005 SCT020 BKN035 FEW035CB 26/25 Q1008 RMK 1ST005 4CU020 6CU035 1CB035 A2979 FBL TS 15KM NW MOV NE
RJFU 170408Z 32011KT 260V050 4000 R32/1600VP2000N +TSRA BR FEW005 SCT020 BKN035 FEW035CB 26/25 Q1008 RMK 1ST005 4CU020 6CU035 1CB035 A2979 FBL TS 15KM NW MOV NE
RJFU 170400Z 34013KT 9999 -SHRA FEW005 SCT020 BKN035 27/24 Q1008
RJFU 170300Z 20015KT 9999 -SHRA FEW005 SCT015 BKN030 29/26 Q1008
RJFU 170200Z 21018KT 9999 VCSH FEW005 SCT020 BKN030 30/26 Q1008
RJFU 170100Z 21015KT 9999 VCSH FEW005 SCT020 BKN030 29/26 Q1008
RJFU 170000Z 19008KT 9999 VCSH FEW005 SCT020 BKN025 29/27 Q1009
RJFU 162300Z 21016KT 9999 -TSRA FEW005 SCT015 BKN020 FEW020CB 29/26 Q1008
RJFU 162200Z 22019KT 9999 -SHRA FEW005 SCT015 BKN020 29/26 Q1008
RJFU 162149Z 20016KT 9999 R32/1100VP2000D SHRA FEW005 SCT020 BKN025 28/26 Q1008 RMK 1ST005 3CU020 6CU025 A2977
RJFU 162135Z 23015KT 9999 -TSRA FEW004 SCT015 BKN025 FEW025CB 28/26 Q1008 RMK 1ST004 3CU015 6CU025 1CB025 A2977 FBL TS 10KM E MOV NE
RJFU 162129Z 21021KT 180V250 7000 R32/0450VP2000U SHRA FEW004 SCT015 BKN025 28/25 Q1008 RMK 1ST004 3CU015 5CU025 A2977
RJFU 162112Z 22016KT 4000 R32/1100VP2000D +SHRA BR FEW008 SCT020 BKN025 28/25 Q1008 RMK 1ST008 3CU020 7CU025 A2977 RI++
RJFU 162110Z 22016KT 4000 SHRA BR FEW008 SCT020 BKN025 29/26 Q1008 RMK 1ST008 3CU020 7CU025 A2977